Time;durP1;ratioP1;P1;durP2;ratioP2;P2;SDS_P1;SDS_P2;PMS_P1;PMS_P2;Temp;Humidity;BMP_temperature;BMP_pressure;BME280_temperature;BME280_humidity;BME280_pressure;Samples;Min_cycle;Max_cycle;Signal;HPM_P1;HPM_P2
2022/01/04 00:02:16;;;;;;;6.13;1.80;;;;;;;;;;5019658;28;20504;-59
2022/01/04 00:04:42;;;;;;;15.60;1.73;;;;;;;;;;5019977;28;20025;-59
2022/01/04 00:07:08;;;;;;;10.85;1.30;;;;;;;;;;5017144;28;20030;-59
2022/01/04 00:09:40;;;;;;;16.80;2.10;;;;;;;;;;5022398;28;20085;-59
2022/01/04 00:14:55;;;;;;;11.63;2.17;;;;;;;;;;5021851;28;20088;-59
2022/01/04 00:17:21;;;;;;;13.88;1.70;;;;;;;;;;5022317;28;20033;-59
2022/01/04 00:19:46;;;;;;;14.63;2.03;;;;;;;;;;5021687;28;20471;-59
2022/01/04 00:22:12;;;;;;;11.85;1.48;;;;;;;;;;5022801;28;20040;-59
2022/01/04 00:24:37;;;;;;;13.77;2.20;;;;;;;;;;5023990;28;20067;-58
2022/01/04 00:27:03;;;;;;;21.85;2.47;;;;;;;;;;5023926;28;20098;-59
2022/01/04 00:29:29;;;;;;;16.50;2.45;;;;;;;;;;5022830;28;20033;-59
2022/01/04 00:31:54;;;;;;;9.25;1.60;;;;;;;;;;5019053;28;20468;-59
2022/01/04 00:34:20;;;;;;;26.48;2.20;;;;;;;;;;5019883;28;20141;-59
2022/01/04 00:36:45;;;;;;;10.82;1.95;;;;;;;;;;5018970;28;20359;-58
2022/01/04 00:39:11;;;;;;;15.40;2.53;;;;;;;;;;5019688;28;20092;-58
2022/01/04 00:41:36;;;;;;;8.75;2.05;;;;;;;;;;5023698;28;20036;-58
2022/01/04 00:44:02;;;;;;;21.05;2.72;;;;;;;;;;5023024;28;20044;-57
2022/01/04 00:46:28;;;;;;;21.77;2.30;;;;;;;;;;5023469;28;20095;-58
2022/01/04 00:49:12;;;;;;;6.57;1.55;;;;;;;;;;5016984;28;20033;-58
2022/01/04 00:51:43;;;;;;;12.10;1.67;;;;;;;;;;5018853;28;20119;-58
2022/01/04 00:54:09;;;;;;;14.10;1.90;;;;;;;;;;5022624;28;20036;-58
2022/01/04 00:56:36;;;;;;;13.85;1.98;;;;;;;;;;5020120;28;20036;-58
2022/01/04 00:59:02;;;;;;;18.55;1.80;;;;;;;;;;5023679;28;20460;-58
2022/01/04 01:01:28;;;;;;;10.07;1.88;;;;;;;;;;5022387;28;20121;-59
2022/01/04 01:03:54;;;;;;;16.38;1.83;;;;;;;;;;5026872;28;20172;-59
2022/01/04 01:06:20;;;;;;;15.32;1.75;;;;;;;;;;5022826;28;20487;-59
2022/01/04 01:08:45;;;;;;;21.42;1.95;;;;;;;;;;5023594;28;20044;-59
2022/01/04 01:11:11;;;;;;;13.00;2.60;;;;;;;;;;5024311;28;20105;-58
2022/01/04 01:13:37;;;;;;;9.63;2.10;;;;;;;;;;5023664;28;20022;-59
2022/01/04 01:16:03;;;;;;;14.77;2.22;;;;;;;;;;5025356;28;20116;-58
2022/01/04 01:18:29;;;;;;;15.05;2.10;;;;;;;;;;5018905;28;20073;-59
2022/01/04 01:20:55;;;;;;;13.63;1.92;;;;;;;;;;5027092;28;20055;-59
2022/01/04 01:23:21;;;;;;;7.63;1.55;;;;;;;;;;5025800;28;20132;-59
2022/01/04 01:25:47;;;;;;;24.60;1.83;;;;;;;;;;5024164;28;20473;-59
2022/01/04 01:28:14;;;;;;;10.52;1.95;;;;;;;;;;5023637;28;20049;-58
2022/01/04 01:30:42;;;;;;;13.98;2.03;;;;;;;;;;5023919;28;20040;-58
2022/01/04 01:33:08;;;;;;;13.63;2.10;;;;;;;;;;5021282;28;20099;-58
2022/01/04 01:35:37;;;;;;;14.60;2.35;;;;;;;;;;5024563;28;20049;-58
2022/01/04 01:38:02;;;;;;;14.15;2.22;;;;;;;;;;5025809;28;20098;-58
2022/01/04 01:40:28;;;;;;;10.82;1.73;;;;;;;;;;5022949;28;20037;-59
2022/01/04 01:42:54;;;;;;;21.40;3.70;;;;;;;;;;5023156;28;20120;-58
2022/01/04 01:45:21;;;;;;;8.45;1.48;;;;;;;;;;5024394;28;20476;-58
2022/01/04 01:47:47;;;;;;;11.68;1.75;;;;;;;;;;5021307;28;20068;-58
2022/01/04 01:50:14;;;;;;;24.27;1.95;;;;;;;;;;5019205;28;20116;-58
2022/01/04 01:52:42;;;;;;;8.77;1.95;;;;;;;;;;5021960;28;20033;-58
2022/01/04 01:55:09;;;;;;;14.45;1.85;;;;;;;;;;5025540;28;20120;-58
2022/01/04 01:57:35;;;;;;;8.60;1.77;;;;;;;;;;5024042;28;20378;-58
2022/01/04 02:00:01;;;;;;;21.55;2.55;;;;;;;;;;5021407;28;20137;-58
2022/01/04 02:02:26;;;;;;;10.23;2.22;;;;;;;;;;5025896;28;20025;-58
2022/01/04 02:04:52;;;;;;;11.57;2.13;;;;;;;;;;5040226;28;20050;-59
2022/01/04 02:07:19;;;;;;;11.52;2.05;;;;;;;;;;5024374;28;20076;-58
2022/01/04 02:09:52;;;;;;;11.02;2.00;;;;;;;;;;5026266;28;20053;-57
2022/01/04 02:12:19;;;;;;;16.50;2.63;;;;;;;;;;5022075;28;20213;-57
2022/01/04 02:14:51;;;;;;;8.63;1.73;;;;;;;;;;5024363;28;20025;-58
2022/01/04 02:17:17;;;;;;;10.70;2.85;;;;;;;;;;5024771;28;20029;-57
2022/01/04 02:19:43;;;;;;;11.15;1.85;;;;;;;;;;5024419;28;20043;-58
2022/01/04 02:22:08;;;;;;;13.70;2.20;;;;;;;;;;5023587;28;20484;-58
2022/01/04 02:24:34;;;;;;;9.18;1.83;;;;;;;;;;5027345;28;20573;-58
2022/01/04 02:27:00;;;;;;;9.68;2.05;;;;;;;;;;5023523;28;20041;-58
2022/01/04 02:29:27;;;;;;;23.30;2.58;;;;;;;;;;5021079;28;20087;-57
2022/01/04 02:31:53;;;;;;;14.95;2.55;;;;;;;;;;5022234;28;20120;-57
2022/01/04 02:34:19;;;;;;;23.88;2.65;;;;;;;;;;5023101;28;20076;-58
2022/01/04 02:36:45;;;;;;;13.93;2.05;;;;;;;;;;5024867;28;20120;-58
2022/01/04 02:39:11;;;;;;;19.58;2.22;;;;;;;;;;5022375;28;20252;-57
2022/01/04 02:41:36;;;;;;;18.27;2.72;;;;;;;;;;5024704;28;20037;-57
2022/01/04 02:44:02;;;;;;;11.55;2.42;;;;;;;;;;5021855;28;20033;-58
2022/01/04 02:46:28;;;;;;;14.73;2.17;;;;;;;;;;5022686;28;20025;-58
2022/01/04 02:48:53;;;;;;;17.95;2.28;;;;;;;;;;5021443;28;20045;-57
2022/01/04 02:51:19;;;;;;;13.43;2.33;;;;;;;;;;5023567;28;20497;-57
2022/01/04 02:53:45;;;;;;;10.35;2.40;;;;;;;;;;5021069;28;20041;-58
2022/01/04 02:56:11;;;;;;;11.20;2.05;;;;;;;;;;5028495;28;20516;-58
2022/01/04 02:58:37;;;;;;;6.80;1.13;;;;;;;;;;5021624;28;20041;-58
2022/01/04 03:01:04;;;;;;;7.60;1.90;;;;;;;;;;5020164;28;20029;-58
2022/01/04 03:03:31;;;;;;;10.43;2.33;;;;;;;;;;5025204;28;20028;-58
2022/01/04 03:05:56;;;;;;;10.70;2.10;;;;;;;;;;5024520;28;20119;-56
2022/01/04 03:08:23;;;;;;;16.60;2.08;;;;;;;;;;5024208;28;20484;-58
2022/01/04 03:10:49;;;;;;;10.80;1.50;;;;;;;;;;5022380;28;20049;-58
2022/01/04 03:13:16;;;;;;;20.52;2.33;;;;;;;;;;5018893;28;20033;-58
2022/01/04 03:15:42;;;;;;;19.73;1.75;;;;;;;;;;5023324;28;20631;-58
2022/01/04 03:18:08;;;;;;;8.30;1.50;;;;;;;;;;5020527;28;20400;-58
2022/01/04 03:20:34;;;;;;;13.27;2.58;;;;;;;;;;5024654;28;20036;-58
2022/01/04 03:23:00;;;;;;;23.50;1.88;;;;;;;;;;5022051;28;20500;-57
2022/01/04 03:25:26;;;;;;;11.02;1.48;;;;;;;;;;5023365;28;20053;-58
2022/01/04 03:27:52;;;;;;;14.23;1.70;;;;;;;;;;5025884;28;20033;-57
2022/01/04 03:30:17;;;;;;;16.17;1.63;;;;;;;;;;5025212;28;20424;-58
2022/01/04 03:32:43;;;;;;;14.95;1.50;;;;;;;;;;5025599;28;20017;-58
2022/01/04 03:35:09;;;;;;;13.63;1.92;;;;;;;;;;5022186;28;20038;-58
2022/01/04 03:37:34;;;;;;;20.63;1.73;;;;;;;;;;5022628;28;20366;-59
2022/01/04 03:40:00;;;;;;;15.18;1.98;;;;;;;;;;5018986;28;20034;-58
2022/01/04 03:42:25;;;;;;;11.25;1.63;;;;;;;;;;5021777;28;20583;-58
2022/01/04 03:44:51;;;;;;;11.20;1.80;;;;;;;;;;5024837;28;20056;-57
2022/01/04 03:47:16;;;;;;;12.13;2.00;;;;;;;;;;5023843;28;20102;-58
2022/01/04 03:49:42;;;;;;;14.73;1.52;;;;;;;;;;5020005;28;20033;-58
2022/01/04 03:52:07;;;;;;;20.80;1.85;;;;;;;;;;5018204;28;20033;-58
2022/01/04 03:54:33;;;;;;;8.68;0.88;;;;;;;;;;5022001;28;20060;-59
2022/01/04 03:56:58;;;;;;;13.48;1.50;;;;;;;;;;5021078;28;20049;-59
2022/01/04 03:59:24;;;;;;;16.20;1.75;;;;;;;;;;5022614;28;20037;-57
2022/01/04 04:01:49;;;;;;;10.07;1.30;;;;;;;;;;5022125;28;20037;-58
2022/01/04 04:04:16;;;;;;;13.63;1.33;;;;;;;;;;5023573;28;20034;-58
2022/01/04 04:06:42;;;;;;;10.98;1.27;;;;;;;;;;5025399;28;20029;-58
2022/01/04 04:09:08;;;;;;;12.95;1.50;;;;;;;;;;5023732;28;20033;-57
2022/01/04 04:11:33;;;;;;;7.82;1.50;;;;;;;;;;5023689;28;20159;-57
2022/01/04 04:13:59;;;;;;;9.30;0.82;;;;;;;;;;5023574;28;20061;-57
2022/01/04 04:16:24;;;;;;;7.85;1.52;;;;;;;;;;5019194;28;20516;-58
2022/01/04 04:18:50;;;;;;;16.48;1.58;;;;;;;;;;5019456;28;20037;-57
2022/01/04 04:21:15;;;;;;;7.15;1.10;;;;;;;;;;5024017;28;20033;-57
2022/01/04 04:23:41;;;;;;;11.55;1.65;;;;;;;;;;5023875;28;20040;-57
2022/01/04 04:26:07;;;;;;;9.43;1.55;;;;;;;;;;5020072;28;20049;-58
2022/01/04 04:28:32;;;;;;;19.48;2.00;;;;;;;;;;5022334;28;20077;-57
2022/01/04 04:30:59;;;;;;;15.55;1.42;;;;;;;;;;5023725;28;20060;-58
2022/01/04 04:33:24;;;;;;;8.63;1.45;;;;;;;;;;5020959;28;20037;-57
2022/01/04 04:35:50;;;;;;;10.40;1.25;;;;;;;;;;5021388;28;20647;-57
2022/01/04 04:38:15;;;;;;;14.68;1.27;;;;;;;;;;5018282;28;20053;-57
2022/01/04 04:40:41;;;;;;;5.93;1.33;;;;;;;;;;5020601;28;20033;-58
2022/01/04 04:43:07;;;;;;;6.55;1.33;;;;;;;;;;5021209;28;20034;-58
2022/01/04 04:45:32;;;;;;;9.88;0.93;;;;;;;;;;5049824;28;20036;-57
2022/01/04 04:47:58;;;;;;;14.18;1.40;;;;;;;;;;5015564;28;20033;-57
2022/01/04 04:50:23;;;;;;;18.80;1.52;;;;;;;;;;5021471;28;20046;-57
2022/01/04 04:52:49;;;;;;;9.77;2.00;;;;;;;;;;5020197;28;20030;-57
2022/01/04 04:55:14;;;;;;;13.77;1.17;;;;;;;;;;5023586;28;20535;-57
2022/01/04 04:57:40;;;;;;;7.15;1.00;;;;;;;;;;5020208;28;20455;-57
2022/01/04 05:00:08;;;;;;;8.38;1.33;;;;;;;;;;5020021;28;20040;-57
2022/01/04 05:02:33;;;;;;;15.30;1.85;;;;;;;;;;5024392;28;20048;-57
2022/01/04 05:04:59;;;;;;;15.25;1.50;;;;;;;;;;5022583;28;20477;-58
2022/01/04 05:07:26;;;;;;;11.27;1.60;;;;;;;;;;5021350;28;20025;-57
2022/01/04 05:09:51;;;;;;;8.13;1.50;;;;;;;;;;5021894;28;20068;-57
2022/01/04 05:12:17;;;;;;;17.73;1.42;;;;;;;;;;5021347;28;20480;-57
2022/01/04 05:14:46;;;;;;;13.25;1.33;;;;;;;;;;5023265;28;20399;-57
2022/01/04 05:17:12;;;;;;;6.25;1.58;;;;;;;;;;5021557;28;20034;-57
2022/01/04 05:19:39;;;;;;;17.90;1.77;;;;;;;;;;5022547;28;20022;-57
2022/01/04 05:22:04;;;;;;;11.30;1.65;;;;;;;;;;5020546;28;20033;-57
2022/01/04 05:24:30;;;;;;;3.15;0.80;;;;;;;;;;5020184;28;20040;-57
2022/01/04 05:26:55;;;;;;;15.00;2.00;;;;;;;;;;5024085;28;20037;-57
2022/01/04 05:29:21;;;;;;;18.38;1.75;;;;;;;;;;5018608;28;20029;-57
2022/01/04 05:31:46;;;;;;;15.85;2.28;;;;;;;;;;5022996;28;20033;-57
2022/01/04 05:34:12;;;;;;;12.02;2.33;;;;;;;;;;5021462;28;20029;-57
2022/01/04 05:36:37;;;;;;;10.93;1.58;;;;;;;;;;5020396;28;20094;-57
2022/01/04 05:39:03;;;;;;;10.68;1.45;;;;;;;;;;5017278;28;20657;-58
2022/01/04 05:41:29;;;;;;;13.18;1.98;;;;;;;;;;5029064;28;20033;-57
2022/01/04 05:43:54;;;;;;;15.18;1.80;;;;;;;;;;5022420;28;20033;-58
2022/01/04 05:46:20;;;;;;;11.63;1.88;;;;;;;;;;5017973;28;20045;-58
2022/01/04 05:48:45;;;;;;;12.60;1.90;;;;;;;;;;5020411;28;20026;-58
2022/01/04 05:51:11;;;;;;;13.30;1.63;;;;;;;;;;5019615;28;20053;-57
2022/01/04 05:53:36;;;;;;;12.93;2.00;;;;;;;;;;5019074;28;20021;-58
2022/01/04 05:56:02;;;;;;;9.90;1.70;;;;;;;;;;5023797;28;20021;-59
2022/01/04 05:58:28;;;;;;;6.93;1.30;;;;;;;;;;5024123;28;20514;-58
2022/01/04 06:00:53;;;;;;;6.07;2.05;;;;;;;;;;5022880;28;20528;-58
2022/01/04 06:03:19;;;;;;;12.85;1.20;;;;;;;;;;5022722;28;20033;-58
2022/01/04 06:05:44;;;;;;;11.13;1.98;;;;;;;;;;5024747;28;20057;-59
2022/01/04 06:08:11;;;;;;;8.88;1.45;;;;;;;;;;5020725;28;20032;-58
2022/01/04 06:10:40;;;;;;;6.45;1.10;;;;;;;;;;5024559;28;20076;-58
2022/01/04 06:15:31;;;;;;;8.32;1.38;;;;;;;;;;5025309;28;20113;-58
2022/01/04 06:17:57;;;;;;;6.70;1.50;;;;;;;;;;5026665;28;20032;-58
2022/01/04 06:20:24;;;;;;;11.40;1.42;;;;;;;;;;5024137;28;20044;-58
2022/01/04 06:22:51;;;;;;;13.30;1.55;;;;;;;;;;5020463;28;20401;-58
2022/01/04 06:25:20;;;;;;;11.27;1.55;;;;;;;;;;5025256;28;20175;-58
2022/01/04 06:27:48;;;;;;;7.28;1.27;;;;;;;;;;5025718;28;20396;-58
2022/01/04 06:30:18;;;;;;;11.43;1.58;;;;;;;;;;5018680;28;20061;-57
2022/01/04 06:32:45;;;;;;;6.45;1.15;;;;;;;;;;5023455;28;20033;-58
2022/01/04 06:35:13;;;;;;;13.60;1.92;;;;;;;;;;5023489;28;20037;-58
2022/01/04 06:37:42;;;;;;;10.98;1.38;;;;;;;;;;5021627;28;20120;-58
2022/01/04 06:40:09;;;;;;;20.85;1.77;;;;;;;;;;5024041;28;20045;-57
2022/01/04 06:42:35;;;;;;;10.98;1.83;;;;;;;;;;5020021;28;20117;-57
2022/01/04 06:45:00;;;;;;;10.73;1.48;;;;;;;;;;5025487;28;20678;-58
2022/01/04 06:47:26;;;;;;;8.95;1.65;;;;;;;;;;5024833;28;20558;-58
2022/01/04 06:49:51;;;;;;;10.82;1.90;;;;;;;;;;5024830;28;20061;-58
2022/01/04 06:52:17;;;;;;;17.17;1.50;;;;;;;;;;5017009;28;20026;-58
2022/01/04 06:54:42;;;;;;;12.32;1.55;;;;;;;;;;5022268;28;20029;-57
2022/01/04 06:57:08;;;;;;;18.52;2.28;;;;;;;;;;5023138;28;20025;-57
2022/01/04 06:59:33;;;;;;;22.10;1.83;;;;;;;;;;5021488;28;20116;-58
2022/01/04 07:02:00;;;;;;;11.73;1.58;;;;;;;;;;5019482;28;20489;-58
2022/01/04 07:04:26;;;;;;;9.32;1.70;;;;;;;;;;5023019;28;20033;-58
2022/01/04 07:06:51;;;;;;;11.65;0.93;;;;;;;;;;5024175;28;20025;-58
2022/01/04 07:09:17;;;;;;;19.05;2.17;;;;;;;;;;5023875;28;20115;-58
2022/01/04 07:11:42;;;;;;;18.77;1.30;;;;;;;;;;5024746;28;20068;-58
2022/01/04 07:14:08;;;;;;;11.60;2.28;;;;;;;;;;5023088;28;20519;-58
2022/01/04 07:16:33;;;;;;;17.90;1.38;;;;;;;;;;5026058;28;20389;-58
2022/01/04 07:18:59;;;;;;;18.42;2.03;;;;;;;;;;5026753;28;20060;-63
2022/01/04 07:21:25;;;;;;;10.25;1.38;;;;;;;;;;5025713;28;20148;-58
2022/01/04 07:23:54;;;;;;;14.90;2.13;;;;;;;;;;5026547;28;20116;-58
2022/01/04 07:26:19;;;;;;;18.90;1.75;;;;;;;;;;5025613;28;20029;-58
2022/01/04 07:28:46;;;;;;;6.72;1.35;;;;;;;;;;5019614;28;20040;-58
2022/01/04 07:31:13;;;;;;;17.25;2.83;;;;;;;;;;5024984;28;20029;-58
2022/01/04 07:33:39;;;;;;;7.55;1.35;;;;;;;;;;5026996;28;20677;-58
2022/01/04 07:36:08;;;;;;;12.38;2.28;;;;;;;;;;5024914;28;20049;-57
2022/01/04 07:38:35;;;;;;;14.57;1.95;;;;;;;;;;5024155;28;20508;-57
2022/01/04 07:41:01;;;;;;;18.50;2.08;;;;;;;;;;5024207;28;20648;-57
2022/01/04 07:43:27;;;;;;;21.05;3.05;;;;;;;;;;5025778;28;20073;-58
2022/01/04 07:45:53;;;;;;;19.23;1.80;;;;;;;;;;5024656;28;20524;-57
2022/01/04 07:48:19;;;;;;;5.35;1.15;;;;;;;;;;5017115;28;20054;-57
2022/01/04 07:50:45;;;;;;;13.00;2.22;;;;;;;;;;5017510;28;20079;-58
2022/01/04 07:53:10;;;;;;;7.13;1.55;;;;;;;;;;5023033;28;20037;-55
2022/01/04 07:55:36;;;;;;;7.53;1.35;;;;;;;;;;5020109;28;20037;-58
2022/01/04 07:58:01;;;;;;;11.02;2.15;;;;;;;;;;5021363;28;20037;-59
2022/01/04 08:00:28;;;;;;;15.35;2.20;;;;;;;;;;5022317;28;20036;-58
2022/01/04 08:02:55;;;;;;;16.23;2.35;;;;;;;;;;5022008;28;20033;-58
2022/01/04 08:05:21;;;;;;;35.50;3.17;;;;;;;;;;5017989;28;21078;-58
2022/01/04 08:07:47;;;;;;;30.25;3.00;;;;;;;;;;5018713;28;20407;-58
2022/01/04 08:10:13;;;;;;;21.10;2.42;;;;;;;;;;5022421;28;20026;-58
2022/01/04 08:12:40;;;;;;;18.98;3.13;;;;;;;;;;5023843;28;20040;-58
2022/01/04 08:15:07;;;;;;;25.70;4.32;;;;;;;;;;5017486;28;20045;-58
2022/01/04 08:17:33;;;;;;;13.85;2.65;;;;;;;;;;5019479;28;20500;-58
2022/01/04 08:20:00;;;;;;;22.15;3.38;;;;;;;;;;5016673;28;20037;-58
2022/01/04 08:22:31;;;;;;;15.90;2.10;;;;;;;;;;5019172;28;20275;-58
2022/01/04 08:25:05;;;;;;;8.73;1.70;;;;;;;;;;5019309;28;20131;-58
2022/01/04 08:27:31;;;;;;;17.63;2.70;;;;;;;;;;5021378;28;20040;-59
2022/01/04 08:29:57;;;;;;;21.60;2.92;;;;;;;;;;5020349;28;20041;-54
2022/01/04 08:32:22;;;;;;;14.98;2.65;;;;;;;;;;5025160;28;20029;-59
2022/01/04 08:34:49;;;;;;;14.93;2.53;;;;;;;;;;5024390;28;20045;-59
2022/01/04 08:37:17;;;;;;;25.08;4.15;;;;;;;;;;5018260;28;20049;-59
2022/01/04 08:39:42;;;;;;;20.50;2.38;;;;;;;;;;5020537;28;20132;-59
2022/01/04 08:42:08;;;;;;;13.20;1.83;;;;;;;;;;5021985;28;20564;-59
2022/01/04 08:44:39;;;;;;;18.30;2.55;;;;;;;;;;5022523;28;20068;-59
2022/01/04 08:47:08;;;;;;;11.40;2.78;;;;;;;;;;5022920;28;20411;-59
2022/01/04 08:49:37;;;;;;;15.20;2.20;;;;;;;;;;5020369;28;20026;-59
2022/01/04 08:52:03;;;;;;;18.55;2.97;;;;;;;;;;5023853;28;20036;-59
2022/01/04 08:54:29;;;;;;;20.95;2.63;;;;;;;;;;5018281;28;20151;-59
2022/01/04 08:56:55;;;;;;;19.33;2.88;;;;;;;;;;5023527;28;20037;-59
2022/01/04 08:59:21;;;;;;;20.15;2.72;;;;;;;;;;5017788;28;20042;-59
2022/01/04 09:01:47;;;;;;;20.23;2.22;;;;;;;;;;5020624;28;20037;-59
2022/01/04 09:04:13;;;;;;;26.65;4.00;;;;;;;;;;5024275;28;20033;-59
2022/01/04 09:06:38;;;;;;;11.18;2.35;;;;;;;;;;5019926;28;20033;-59
2022/01/04 09:09:05;;;;;;;10.23;1.90;;;;;;;;;;5021804;28;20075;-59
2022/01/04 09:11:32;;;;;;;17.33;2.90;;;;;;;;;;5023341;28;20033;-59
2022/01/04 09:19:21;;;;;;;17.95;3.13;;;;;;;;;;5020111;28;20633;-60
2022/01/04 09:21:46;;;;;;;22.00;3.75;;;;;;;;;;5023705;28;20034;-60
2022/01/04 09:24:12;;;;;;;25.35;3.15;;;;;;;;;;5015395;28;20033;-58
2022/01/04 09:26:37;;;;;;;12.38;3.72;;;;;;;;;;5013344;28;20025;-59
2022/01/04 09:29:03;;;;;;;28.88;3.72;;;;;;;;;;5012073;28;20029;-60
2022/01/04 09:31:29;;;;;;;11.50;2.47;;;;;;;;;;5026576;28;20109;-59
2022/01/04 09:33:57;;;;;;;28.30;4.65;;;;;;;;;;5026516;28;20250;-59
2022/01/04 09:36:22;;;;;;;14.85;1.60;;;;;;;;;;5020576;28;20115;-59
2022/01/04 09:38:48;;;;;;;19.50;2.60;;;;;;;;;;5016133;28;20037;-59
2022/01/04 09:41:14;;;;;;;26.17;3.67;;;;;;;;;;5027069;28;20049;-59
2022/01/04 09:43:40;;;;;;;21.83;3.40;;;;;;;;;;5029987;28;20029;-59
2022/01/04 09:46:05;;;;;;;11.38;2.80;;;;;;;;;;5029207;28;20023;-59
2022/01/04 09:48:31;;;;;;;12.40;2.05;;;;;;;;;;5025003;28;20697;-59
2022/01/04 09:50:57;;;;;;;13.35;2.47;;;;;;;;;;5021987;28;20048;-59
2022/01/04 09:53:24;;;;;;;13.82;3.72;;;;;;;;;;5020922;28;20425;-60
2022/01/04 09:55:55;;;;;;;15.90;2.03;;;;;;;;;;5019753;28;20032;-59
2022/01/04 09:58:23;;;;;;;15.63;2.55;;;;;;;;;;5026147;28;20346;-59
2022/01/04 10:00:50;;;;;;;13.80;3.03;;;;;;;;;;5021331;28;20033;-58
2022/01/04 10:03:17;;;;;;;27.45;3.53;;;;;;;;;;5023748;28;20022;-57
2022/01/04 10:05:43;;;;;;;11.25;1.83;;;;;;;;;;5025995;28;20100;-53
2022/01/04 10:08:11;;;;;;;20.25;3.38;;;;;;;;;;5022204;28;20029;-54
2022/01/04 10:10:37;;;;;;;20.60;3.72;;;;;;;;;;5020077;28;20033;-52
2022/01/04 10:13:05;;;;;;;31.08;3.63;;;;;;;;;;5024151;28;20033;-52
2022/01/04 10:15:35;;;;;;;30.00;3.03;;;;;;;;;;5023127;28;20365;-51
2022/01/04 10:18:13;;;;;;;16.90;2.97;;;;;;;;;;5023918;28;20514;-54
2022/01/04 10:20:44;;;;;;;29.02;3.83;;;;;;;;;;5022783;28;20021;-52
2022/01/04 10:23:11;;;;;;;28.58;2.47;;;;;;;;;;5028416;28;20029;-51
2022/01/04 10:25:38;;;;;;;27.13;5.10;;;;;;;;;;5024665;28;20025;-55
2022/01/04 10:28:04;;;;;;;28.17;4.25;;;;;;;;;;5027541;28;20500;-51
2022/01/04 10:30:30;;;;;;;12.40;2.80;;;;;;;;;;5021882;28;20033;-55
2022/01/04 10:33:14;;;;;;;19.88;3.50;;;;;;;;;;5026454;28;20030;-55
2022/01/04 10:35:42;;;;;;;26.33;3.72;;;;;;;;;;5022785;28;20033;-53
2022/01/04 10:38:15;;;;;;;15.00;2.53;;;;;;;;;;5022370;28;20079;-56
2022/01/04 10:40:47;;;;;;;17.00;2.53;;;;;;;;;;5022991;28;20052;-59
2022/01/04 10:43:25;;;;;;;20.15;2.47;;;;;;;;;;5026181;28;20017;-59
2022/01/04 10:45:51;;;;;;;20.00;3.53;;;;;;;;;;5024467;28;20061;-59
2022/01/04 10:48:25;;;;;;;14.23;3.30;;;;;;;;;;5021870;28;20484;-59
2022/01/04 10:50:55;;;;;;;15.30;1.80;;;;;;;;;;5022906;28;20087;-58
2022/01/04 10:53:34;;;;;;;16.38;2.03;;;;;;;;;;5023162;28;20036;-58
2022/01/04 10:56:02;;;;;;;19.45;3.08;;;;;;;;;;5022989;28;20030;-59
2022/01/04 10:58:47;;;;;;;31.63;3.38;;;;;;;;;;5025879;28;20022;-58
2022/01/04 11:01:16;;;;;;;19.52;3.05;;;;;;;;;;5016746;28;20026;-58
2022/01/04 11:03:49;;;;;;;28.35;5.35;;;;;;;;;;5021291;28;20025;-58
2022/01/04 11:06:35;;;;;;;19.13;3.67;;;;;;;;;;5018758;28;20089;-57
2022/01/04 11:09:02;;;;;;;27.67;3.90;;;;;;;;;;5027100;28;20087;-57
2022/01/04 11:11:28;;;;;;;27.38;4.55;;;;;;;;;;5025759;28;20053;-57
2022/01/04 11:13:54;;;;;;;14.63;3.28;;;;;;;;;;5021019;28;20472;-58
2022/01/04 11:16:23;;;;;;;31.02;3.90;;;;;;;;;;5024629;28;20455;-58
2022/01/04 11:18:50;;;;;;;25.27;3.55;;;;;;;;;;5026074;28;20124;-58
2022/01/04 11:21:29;;;;;;;36.28;4.50;;;;;;;;;;5024355;28;20029;-58
2022/01/04 11:23:58;;;;;;;22.52;4.03;;;;;;;;;;5026343;28;20079;-58
2022/01/04 11:26:25;;;;;;;13.63;3.45;;;;;;;;;;5025396;28;20839;-58
2022/01/04 11:28:52;;;;;;;26.67;3.53;;;;;;;;;;5019928;28;20042;-58
2022/01/04 11:31:56;;;;;;;20.25;3.47;;;;;;;;;;5017771;28;20029;-58
2022/01/04 11:34:30;;;;;;;21.40;3.38;;;;;;;;;;5016357;28;20018;-58
2022/01/04 11:36:56;;;;;;;22.67;3.00;;;;;;;;;;5014992;28;20535;-58
2022/01/04 11:39:33;;;;;;;16.30;2.60;;;;;;;;;;5021225;28;20053;-58
2022/01/04 11:42:02;;;;;;;27.23;3.65;;;;;;;;;;5020962;28;20021;-54
2022/01/04 11:44:29;;;;;;;21.60;3.63;;;;;;;;;;5025648;28;20021;-55
2022/01/04 11:46:59;;;;;;;20.20;3.10;;;;;;;;;;5025787;28;20030;-56
2022/01/04 11:49:25;;;;;;;8.57;2.72;;;;;;;;;;5028458;28;20029;-59
2022/01/04 11:51:50;;;;;;;26.75;3.38;;;;;;;;;;5025329;28;20515;-59
2022/01/04 11:54:21;;;;;;;11.05;2.38;;;;;;;;;;5019236;28;20423;-59
2022/01/04 11:56:56;;;;;;;32.78;3.45;;;;;;;;;;5022808;28;20440;-59
2022/01/04 11:59:45;;;;;;;19.55;2.90;;;;;;;;;;5021946;28;20033;-59
2022/01/04 12:02:36;;;;;;;22.95;3.58;;;;;;;;;;5030189;28;20411;-59
2022/01/04 12:05:13;;;;;;;15.35;3.03;;;;;;;;;;5026970;28;20018;-59
2022/01/04 12:07:39;;;;;;;25.52;3.90;;;;;;;;;;5026198;28;20037;-59
2022/01/04 12:10:22;;;;;;;15.90;3.30;;;;;;;;;;5022166;28;20029;-58
2022/01/04 12:12:58;;;;;;;27.20;3.33;;;;;;;;;;5022869;28;20026;-59
2022/01/04 12:15:32;;;;;;;34.70;4.28;;;;;;;;;;5024776;28;20053;-59
2022/01/04 12:18:05;;;;;;;22.55;3.50;;;;;;;;;;5028442;28;20073;-59
2022/01/04 12:20:43;;;;;;;19.40;2.63;;;;;;;;;;5022177;28;20283;-60
2022/01/04 12:23:26;;;;;;;36.30;5.78;;;;;;;;;;5051723;28;20428;-58
2022/01/04 12:28:46;;;;;;;23.25;4.00;;;;;;;;;;5023533;28;20033;-58
2022/01/04 12:31:20;;;;;;;27.40;3.65;;;;;;;;;;5023287;28;20135;-58
2022/01/04 12:33:52;;;;;;;16.27;3.20;;;;;;;;;;5017841;28;20029;-57
2022/01/04 12:36:34;;;;;;;22.08;3.17;;;;;;;;;;5028123;28;20049;-58
2022/01/04 12:39:04;;;;;;;;;;;;;;;;;;5020373;28;20373;-58
2022/01/04 12:41:31;;;;;;;15.23;3.10;;;;;;;;;;5019938;28;19913;-59
2022/01/04 12:43:57;;;;;;;15.15;3.35;;;;;;;;;;5025475;28;20048;-59
2022/01/04 12:46:32;;;;;;;23.80;4.35;;;;;;;;;;5015753;28;20544;-58
2022/01/04 12:49:01;;;;;;;22.15;3.70;;;;;;;;;;5022667;28;20040;-58
2022/01/04 12:51:28;;;;;;;16.48;2.28;;;;;;;;;;5022581;28;20412;-58
2022/01/04 12:53:59;;;;;;;16.02;2.88;;;;;;;;;;5017637;28;20037;-58
2022/01/04 12:56:26;;;;;;;22.13;2.97;;;;;;;;;;5023652;28;20037;-59
2022/01/04 12:58:51;;;;;;;19.55;2.45;;;;;;;;;;5021389;28;20535;-58
2022/01/04 13:01:28;;;;;;;27.70;3.63;;;;;;;;;;5024174;28;20038;-58
2022/01/04 13:03:55;;;;;;;27.98;3.92;;;;;;;;;;5027717;28;20013;-59
2022/01/04 13:06:21;;;;;;;27.30;4.38;;;;;;;;;;5028012;28;20460;-59
2022/01/04 13:08:58;;;;;;;26.35;3.40;;;;;;;;;;5022063;28;20128;-59
2022/01/04 13:11:24;;;;;;;26.42;3.90;;;;;;;;;;5028064;28;20068;-59
2022/01/04 13:14:01;;;;;;;26.33;2.80;;;;;;;;;;5030098;28;20025;-59
2022/01/04 13:16:34;;;;;;;27.23;4.00;;;;;;;;;;5033613;28;20095;-58
2022/01/04 13:19:17;;;;;;;19.45;3.58;;;;;;;;;;5026104;28;20041;-58
2022/01/04 13:22:00;;;;;;;18.73;2.60;;;;;;;;;;5025468;28;20439;-58
2022/01/04 13:24:45;;;;;;;16.65;3.05;;;;;;;;;;5024572;28;20580;-58
2022/01/04 13:27:37;;;;;;;15.35;3.95;;;;;;;;;;5023682;28;20033;-57
2022/01/04 13:30:28;;;;;;;17.87;2.90;;;;;;;;;;5026978;28;20028;-58
2022/01/04 13:32:59;;;;;;;32.42;4.78;;;;;;;;;;5023261;28;20274;-58
2022/01/04 13:35:32;;;;;;;21.45;3.58;;;;;;;;;;5022082;28;20586;-59
2022/01/04 13:37:58;;;;;;;12.55;2.65;;;;;;;;;;5023238;28;20037;-58
2022/01/04 13:40:28;;;;;;;14.85;2.83;;;;;;;;;;5054705;28;20056;-59
2022/01/04 13:43:08;;;;;;;15.60;2.60;;;;;;;;;;5017319;28;20034;-56
2022/01/04 13:45:48;;;;;;;17.00;2.95;;;;;;;;;;5026157;28;20023;-57
2022/01/04 13:48:22;;;;;;;19.02;2.60;;;;;;;;;;5015735;28;20030;-57
2022/01/04 13:50:48;;;;;;;26.35;3.65;;;;;;;;;;5020922;28;20029;-57
2022/01/04 13:53:19;;;;;;;20.92;2.47;;;;;;;;;;5023659;28;20028;-58
2022/01/04 13:56:01;;;;;;;32.00;4.20;;;;;;;;;;5025802;28;20489;-57
2022/01/04 13:58:36;;;;;;;19.98;3.13;;;;;;;;;;5031998;28;20029;-58
2022/01/04 14:01:41;;;;;;;22.98;2.90;;;;;;;;;;5023145;28;20443;-58
2022/01/04 14:04:12;;;;;;;12.98;2.13;;;;;;;;;;5028533;28;20033;-58
2022/01/04 14:06:44;;;;;;;24.00;3.45;;;;;;;;;;5031397;28;20476;-56
2022/01/04 14:09:16;;;;;;;14.23;2.75;;;;;;;;;;5024339;28;20033;-57
2022/01/04 14:11:43;;;;;;;22.05;3.00;;;;;;;;;;5028708;28;20053;-58
2022/01/04 14:14:23;;;;;;;14.98;2.55;;;;;;;;;;5027813;28;20432;-58
2022/01/04 14:16:55;;;;;;;25.35;3.25;;;;;;;;;;5020784;28;20034;-58
2022/01/04 14:19:26;;;;;;;17.27;2.67;;;;;;;;;;5020925;28;20287;-58
2022/01/04 14:21:57;;;;;;;29.60;3.28;;;;;;;;;;5024441;28;20037;-58
2022/01/04 14:24:47;;;;;;;10.85;2.95;;;;;;;;;;5015616;28;20033;-58
2022/01/04 14:27:15;;;;;;;18.70;3.10;;;;;;;;;;5016445;28;20028;-58
2022/01/04 14:29:44;;;;;;;16.50;3.38;;;;;;;;;;5022701;28;20061;-59
2022/01/04 14:32:27;;;;;;;25.35;3.40;;;;;;;;;;5024744;28;20489;-59
2022/01/04 14:34:59;;;;;;;12.88;2.70;;;;;;;;;;5022932;28;20048;-58
2022/01/04 14:37:24;;;;;;;17.95;3.00;;;;;;;;;;5019951;28;20041;-58
2022/01/04 14:39:52;;;;;;;20.13;2.88;;;;;;;;;;5021497;28;20092;-58
2022/01/04 14:42:17;;;;;;;21.20;3.75;;;;;;;;;;5022042;28;20029;-58
2022/01/04 14:44:43;;;;;;;22.27;4.05;;;;;;;;;;5024795;28;20559;-59
2022/01/04 14:47:09;;;;;;;23.13;3.63;;;;;;;;;;5019012;28;20022;-58
2022/01/04 14:49:35;;;;;;;26.27;3.28;;;;;;;;;;5019751;28;20033;-57
2022/01/04 14:52:02;;;;;;;15.98;3.13;;;;;;;;;;5020436;28;20746;-58